Time;durP1;ratioP1;P1;durP2;ratioP2;P2;SDS_P1;SDS_P2;PMS_P1;PMS_P2;Temp;Humidity;BMP_temperature;BMP_pressure;BME280_temperature;BME280_humidity;BME280_pressure;Samples;Min_cycle;Max_cycle;Signal;HPM_P1;HPM_P2
2022/12/13 00:01:32;;;;;;;16.23;13.90;;;;;;;;;;5093005;28;20409;-84
2022/12/13 00:03:59;;;;;;;15.80;13.65;;;;;;;;;;5089755;28;20382;-84
2022/12/13 00:06:25;;;;;;;15.13;13.50;;;;;;;;;;5093278;28;20378;-84
2022/12/13 00:08:51;;;;;;;16.00;13.77;;;;;;;;;;5093405;28;20378;-83
2022/12/13 00:11:17;;;;;;;15.38;13.82;;;;;;;;;;5084241;28;20395;-84
2022/12/13 00:13:45;;;;;;;14.87;13.30;;;;;;;;;;5072252;28;21046;-83
2022/12/13 00:16:12;;;;;;;18.38;13.80;;;;;;;;;;5090968;28;20439;-83
2022/12/13 00:18:38;;;;;;;16.15;13.85;;;;;;;;;;5090775;28;20381;-83
2022/12/13 00:21:05;;;;;;;16.27;13.25;;;;;;;;;;5090895;28;20765;-84
2022/12/13 00:23:31;;;;;;;16.35;13.73;;;;;;;;;;5090684;28;20398;-84
2022/12/13 00:26:08;;;;;;;15.27;13.75;;;;;;;;;;5097217;28;20390;-83
2022/12/13 00:28:34;;;;;;;16.02;13.60;;;;;;;;;;5090734;28;20396;-83
2022/12/13 00:31:00;;;;;;;15.00;13.40;;;;;;;;;;5092764;28;20453;-83
2022/12/13 00:33:27;;;;;;;15.68;12.85;;;;;;;;;;5092667;28;20473;-83
2022/12/13 00:35:53;;;;;;;15.77;13.55;;;;;;;;;;5092500;28;20397;-83
2022/12/13 00:38:19;;;;;;;14.18;12.63;;;;;;;;;;5092083;28;20382;-83
2022/12/13 00:40:45;;;;;;;16.13;13.30;;;;;;;;;;5074309;28;20898;-84
2022/12/13 00:43:11;;;;;;;15.70;14.00;;;;;;;;;;5091665;28;20484;-83
2022/12/13 00:45:37;;;;;;;17.42;14.02;;;;;;;;;;5091939;28;20386;-83
2022/12/13 00:48:04;;;;;;;16.67;13.57;;;;;;;;;;5092149;28;20393;-83
2022/12/13 00:50:30;;;;;;;15.82;14.10;;;;;;;;;;5092389;28;20461;-84
2022/12/13 00:52:58;;;;;;;17.88;13.73;;;;;;;;;;5092174;28;20439;-83
2022/12/13 00:55:24;;;;;;;15.10;13.47;;;;;;;;;;5092371;28;20467;-83
2022/12/13 00:57:50;;;;;;;14.82;13.18;;;;;;;;;;5088461;28;20381;-83
2022/12/13 01:00:16;;;;;;;16.70;13.02;;;;;;;;;;5100408;28;20431;-83
2022/12/13 01:02:44;;;;;;;15.07;13.43;;;;;;;;;;5091536;28;20463;-83
2022/12/13 01:05:10;;;;;;;15.25;13.48;;;;;;;;;;5092443;28;20378;-83
2022/12/13 01:07:37;;;;;;;15.68;13.40;;;;;;;;;;5091954;28;20384;-84
2022/12/13 01:10:05;;;;;;;15.32;13.23;;;;;;;;;;5092315;28;20419;-84
2022/12/13 01:12:31;;;;;;;15.73;13.45;;;;;;;;;;5091936;28;20366;-83
2022/12/13 01:14:57;;;;;;;13.95;12.60;;;;;;;;;;5091847;28;20909;-83
2022/12/13 01:17:23;;;;;;;16.98;13.93;;;;;;;;;;5091995;28;20417;-83
2022/12/13 01:19:49;;;;;;;15.13;13.07;;;;;;;;;;5092006;28;20381;-83
2022/12/13 01:22:15;;;;;;;16.07;13.20;;;;;;;;;;5091863;28;20770;-83
2022/12/13 01:24:41;;;;;;;14.13;12.60;;;;;;;;;;5073713;28;20390;-83
2022/12/13 01:27:08;;;;;;;14.43;12.88;;;;;;;;;;5091990;28;20382;-83
2022/12/13 01:29:34;;;;;;;15.63;13.00;;;;;;;;;;5088731;28;20378;-84
2022/12/13 01:32:00;;;;;;;14.13;12.57;;;;;;;;;;5092045;28;20390;-83
2022/12/13 01:34:28;;;;;;;15.50;13.05;;;;;;;;;;5092155;28;20842;-83
2022/12/13 01:36:55;;;;;;;13.93;12.52;;;;;;;;;;5092191;28;20386;-83
2022/12/13 01:39:21;;;;;;;14.52;12.40;;;;;;;;;;5092038;28;20418;-83
2022/12/13 01:41:49;;;;;;;15.52;12.70;;;;;;;;;;5091147;28;20417;-83
2022/12/13 01:44:34;;;;;;;13.85;12.45;;;;;;;;;;5091242;28;20374;-83
2022/12/13 01:47:00;;;;;;;13.95;12.48;;;;;;;;;;5091363;28;20370;-83
2022/12/13 01:49:26;;;;;;;16.25;13.05;;;;;;;;;;5093790;28;20374;-84
2022/12/13 01:51:53;;;;;;;14.38;12.88;;;;;;;;;;5095368;28;20462;-83
2022/12/13 01:54:22;;;;;;;13.80;12.05;;;;;;;;;;5095772;28;20386;-84
2022/12/13 01:56:50;;;;;;;13.23;11.93;;;;;;;;;;5092399;28;20412;-83
2022/12/13 01:59:18;;;;;;;13.95;12.05;;;;;;;;;;5095912;28;20381;-83
2022/12/13 02:01:44;;;;;;;14.38;12.15;;;;;;;;;;5095711;28;20424;-84
2022/12/13 02:04:10;;;;;;;14.38;12.95;;;;;;;;;;5095258;28;20404;-84
2022/12/13 02:06:37;;;;;;;13.48;11.85;;;;;;;;;;5095222;28;20412;-83
2022/12/13 02:09:04;;;;;;;18.55;13.95;;;;;;;;;;5095295;28;20382;-84
2022/12/13 02:11:31;;;;;;;13.00;11.70;;;;;;;;;;5095108;28;20418;-83
2022/12/13 02:13:56;;;;;;;12.65;11.35;;;;;;;;;;5095143;28;20385;-83
2022/12/13 02:16:28;;;;;;;13.63;11.70;;;;;;;;;;5095363;28;20446;-83
2022/12/13 02:19:10;;;;;;;13.23;11.93;;;;;;;;;;5095316;28;20378;-84
2022/12/13 02:21:36;;;;;;;12.70;11.40;;;;;;;;;;5094913;28;20444;-83
2022/12/13 02:24:21;;;;;;;13.82;12.02;;;;;;;;;;5095399;28;20416;-83
2022/12/13 02:26:52;;;;;;;12.70;11.32;;;;;;;;;;5094820;28;20371;-83
2022/12/13 02:29:33;;;;;;;13.20;11.25;;;;;;;;;;5076706;28;20935;-83
2022/12/13 02:31:59;;;;;;;13.85;11.40;;;;;;;;;;5094918;28;20394;-83
2022/12/13 02:34:28;;;;;;;13.13;11.73;;;;;;;;;;5093639;28;20474;-84
2022/12/13 02:37:05;;;;;;;12.20;10.90;;;;;;;;;;5074720;28;20879;-83
2022/12/13 02:39:33;;;;;;;12.98;11.07;;;;;;;;;;5093062;28;20891;-85
2022/12/13 02:42:01;;;;;;;12.38;10.73;;;;;;;;;;5088414;28;20411;-84
2022/12/13 02:44:34;;;;;;;12.57;11.02;;;;;;;;;;5090996;28;20430;-83
2022/12/13 02:47:29;;;;;;;12.10;10.88;;;;;;;;;;5085036;28;20430;-83
2022/12/13 02:49:58;;;;;;;11.85;10.60;;;;;;;;;;5062727;28;20920;-83
2022/12/13 02:52:26;;;;;;;13.18;10.77;;;;;;;;;;5070636;28;20470;-83
2022/12/13 02:54:55;;;;;;;11.85;10.65;;;;;;;;;;5092381;28;20382;-83
2022/12/13 02:57:34;;;;;;;11.93;10.73;;;;;;;;;;5093495;28;20374;-83
2022/12/13 03:00:02;;;;;;;11.82;10.63;;;;;;;;;;5092865;28;20385;-83
2022/12/13 03:02:47;;;;;;;13.07;11.68;;;;;;;;;;5093038;28;20398;-83
2022/12/13 03:08:06;;;;;;;14.20;11.85;;;;;;;;;;5093533;28;20372;-83
2022/12/13 03:10:36;;;;;;;12.35;11.05;;;;;;;;;;5094288;28;20385;-83
2022/12/13 03:15:50;;;;;;;12.75;11.00;;;;;;;;;;5094779;28;20444;-83
2022/12/13 03:18:18;;;;;;;11.90;10.70;;;;;;;;;;5094251;28;20448;-84
2022/12/13 03:20:48;;;;;;;11.57;10.35;;;;;;;;;;5093917;28;20393;-84
2022/12/13 03:23:15;;;;;;;16.10;11.70;;;;;;;;;;5093666;28;20402;-84
2022/12/13 03:25:41;;;;;;;13.27;11.88;;;;;;;;;;5093626;28;20443;-83
2022/12/13 03:28:07;;;;;;;17.07;13.13;;;;;;;;;;5093952;28;20378;-84
2022/12/13 03:30:34;;;;;;;13.13;11.07;;;;;;;;;;5093770;28;20400;-83
2022/12/13 03:33:00;;;;;;;18.75;14.02;;;;;;;;;;5082837;28;20384;-84
2022/12/13 03:35:26;;;;;;;19.05;13.77;;;;;;;;;;5071554;28;20386;-83
2022/12/13 03:37:52;;;;;;;14.07;11.87;;;;;;;;;;5093858;28;20386;-84
2022/12/13 03:40:19;;;;;;;12.38;11.13;;;;;;;;;;5093396;28;20461;-83
2022/12/13 03:42:45;;;;;;;12.18;10.75;;;;;;;;;;5092828;28;20428;-83
2022/12/13 03:45:11;;;;;;;19.30;13.85;;;;;;;;;;5081202;28;20395;-83
2022/12/13 03:47:37;;;;;;;12.55;10.68;;;;;;;;;;5075619;28;20376;-84
2022/12/13 03:50:03;;;;;;;11.63;10.43;;;;;;;;;;5083796;28;20393;-84
2022/12/13 03:52:29;;;;;;;12.82;11.23;;;;;;;;;;5092748;28;20424;-83
2022/12/13 03:54:55;;;;;;;12.63;10.82;;;;;;;;;;5089780;28;20402;-84
2022/12/13 03:57:21;;;;;;;11.50;10.23;;;;;;;;;;5075254;28;20398;-84
2022/12/13 03:59:47;;;;;;;11.43;10.23;;;;;;;;;;5090220;28;20380;-83
2022/12/13 04:02:13;;;;;;;10.85;9.75;;;;;;;;;;5078062;28;20876;-86
2022/12/13 04:04:42;;;;;;;11.43;10.32;;;;;;;;;;5065846;28;20396;-85
2022/12/13 04:07:08;;;;;;;13.20;10.80;;;;;;;;;;5086219;28;20384;-84
2022/12/13 04:09:34;;;;;;;12.95;10.63;;;;;;;;;;5073174;28;20376;-85
2022/12/13 04:14:44;;;;;;;16.48;12.88;;;;;;;;;;5091428;28;20935;-85
2022/12/13 04:17:10;;;;;;;14.95;12.23;;;;;;;;;;5092205;28;20420;-85
2022/12/13 04:19:36;;;;;;;12.45;11.07;;;;;;;;;;5074615;28;20875;-85
2022/12/13 04:22:02;;;;;;;11.87;10.73;;;;;;;;;;5092481;28;20483;-83
2022/12/13 04:24:28;;;;;;;12.25;10.95;;;;;;;;;;5092454;28;20386;-83
2022/12/13 04:26:54;;;;;;;11.93;10.65;;;;;;;;;;5092682;28;20413;-83
2022/12/13 04:29:20;;;;;;;11.63;10.52;;;;;;;;;;5092714;28;20382;-83
2022/12/13 04:31:46;;;;;;;12.98;11.15;;;;;;;;;;5092844;28;20467;-86
2022/12/13 04:34:12;;;;;;;12.65;11.35;;;;;;;;;;5092595;28;20855;-86
2022/12/13 04:36:38;;;;;;;12.48;10.60;;;;;;;;;;5092819;28;20465;-85
2022/12/13 04:39:05;;;;;;;12.80;11.40;;;;;;;;;;5093763;28;20398;-87
2022/12/13 04:41:39;;;;;;;16.20;13.27;;;;;;;;;;5101138;28;20409;-83
2022/12/13 04:44:07;;;;;;;12.38;11.07;;;;;;;;;;5092035;28;20402;-83
2022/12/13 04:46:34;;;;;;;13.23;11.82;;;;;;;;;;5091695;28;20378;-83
2022/12/13 04:49:00;;;;;;;11.52;10.32;;;;;;;;;;5088232;28;20391;-83
2022/12/13 04:51:26;;;;;;;11.80;10.60;;;;;;;;;;5091443;28;20847;-83
2022/12/13 04:53:52;;;;;;;11.65;10.48;;;;;;;;;;5092167;28;20439;-83
2022/12/13 04:56:18;;;;;;;13.35;11.75;;;;;;;;;;5092351;28;20370;-83
2022/12/13 04:58:44;;;;;;;11.55;9.93;;;;;;;;;;5092090;28;20386;-83
2022/12/13 05:01:11;;;;;;;43.60;25.42;;;;;;;;;;5105268;28;20377;-85
2022/12/13 05:03:37;;;;;;;19.08;14.60;;;;;;;;;;5092253;28;20866;-83
2022/12/13 05:06:04;;;;;;;13.73;12.23;;;;;;;;;;5092348;28;20839;-83
2022/12/13 05:08:30;;;;;;;11.57;10.38;;;;;;;;;;5092387;28;20467;-83
2022/12/13 05:10:56;;;;;;;12.10;10.80;;;;;;;;;;5091883;28;20378;-83
2022/12/13 05:13:22;;;;;;;18.83;14.30;;;;;;;;;;5091771;28;20469;-83
2022/12/13 05:15:54;;;;;;;12.53;11.10;;;;;;;;;;5091990;28;20854;-83
2022/12/13 05:18:20;;;;;;;11.32;10.15;;;;;;;;;;5091833;28;20427;-82
2022/12/13 05:20:46;;;;;;;13.85;10.98;;;;;;;;;;5091961;28;20778;-83
2022/12/13 05:23:12;;;;;;;11.75;10.55;;;;;;;;;;5091409;28;20420;-83
2022/12/13 05:25:38;;;;;;;12.32;10.93;;;;;;;;;;5088968;28;20810;-83
2022/12/13 05:28:04;;;;;;;14.00;10.88;;;;;;;;;;5084913;28;20407;-83
2022/12/13 05:30:30;;;;;;;15.15;13.13;;;;;;;;;;5081221;28;20418;-82
2022/12/13 05:32:56;;;;;;;12.02;10.82;;;;;;;;;;5077905;28;20419;-83
2022/12/13 05:35:22;;;;;;;11.50;10.30;;;;;;;;;;5087271;28;20476;-86
2022/12/13 05:37:48;;;;;;;16.02;12.90;;;;;;;;;;5090730;28;20435;-83
2022/12/13 05:40:14;;;;;;;11.38;10.23;;;;;;;;;;5091601;28;20378;-83
2022/12/13 05:42:40;;;;;;;11.00;9.82;;;;;;;;;;5091403;28;20897;-83
2022/12/13 05:45:07;;;;;;;15.93;12.75;;;;;;;;;;5072354;28;20426;-83
2022/12/13 05:47:33;;;;;;;13.88;10.98;;;;;;;;;;5091079;28;20390;-83
2022/12/13 05:49:59;;;;;;;11.52;10.38;;;;;;;;;;5091326;28;20378;-83
2022/12/13 05:52:25;;;;;;;11.98;10.45;;;;;;;;;;5090965;28;20473;-82
2022/12/13 05:54:57;;;;;;;20.08;15.10;;;;;;;;;;5091198;28;20386;-86
2022/12/13 05:57:24;;;;;;;13.20;11.82;;;;;;;;;;5088201;28;20463;-82
2022/12/13 05:59:50;;;;;;;11.70;10.50;;;;;;;;;;5091735;28;20821;-85
2022/12/13 06:02:19;;;;;;;13.43;12.03;;;;;;;;;;5091802;28;20409;-85
2022/12/13 06:04:45;;;;;;;12.40;11.10;;;;;;;;;;5073352;28;20507;-82
2022/12/13 06:07:11;;;;;;;13.45;11.13;;;;;;;;;;5091809;28;20415;-85
2022/12/13 06:09:37;;;;;;;12.25;10.95;;;;;;;;;;5091407;28;20390;-83
2022/12/13 06:12:03;;;;;;;12.00;10.70;;;;;;;;;;5091199;28;20378;-83
2022/12/13 06:14:29;;;;;;;12.18;10.98;;;;;;;;;;5091235;28;20374;-83
2022/12/13 06:16:55;;;;;;;11.32;10.23;;;;;;;;;;5080276;28;20443;-83
2022/12/13 06:19:22;;;;;;;11.77;10.65;;;;;;;;;;5091345;28;20786;-83
2022/12/13 06:21:48;;;;;;;13.23;10.77;;;;;;;;;;5091299;28;20406;-83
2022/12/13 06:24:15;;;;;;;12.23;11.05;;;;;;;;;;5091346;28;20394;-83
2022/12/13 06:26:41;;;;;;;11.20;9.98;;;;;;;;;;5093031;28;20447;-83
2022/12/13 06:29:07;;;;;;;11.20;10.10;;;;;;;;;;5106281;28;20426;-84
2022/12/13 06:31:33;;;;;;;10.45;9.32;;;;;;;;;;5091571;28;20375;-84
2022/12/13 06:34:03;;;;;;;10.80;9.70;;;;;;;;;;5091403;28;20878;-83
2022/12/13 06:36:29;;;;;;;10.40;9.13;;;;;;;;;;5094520;28;20738;-83
2022/12/13 06:38:55;;;;;;;11.57;9.90;;;;;;;;;;5096760;28;20461;-83
2022/12/13 06:41:21;;;;;;;11.30;10.20;;;;;;;;;;5084680;28;20405;-83
2022/12/13 06:43:47;;;;;;;11.13;9.93;;;;;;;;;;5076098;28;20386;-83
2022/12/13 06:46:14;;;;;;;10.75;9.65;;;;;;;;;;5076526;28;20390;-82
2022/12/13 06:48:40;;;;;;;10.85;9.75;;;;;;;;;;5091166;28;20859;-84
2022/12/13 06:51:07;;;;;;;10.95;9.85;;;;;;;;;;5094593;28;20378;-83
2022/12/13 06:53:34;;;;;;;11.57;10.45;;;;;;;;;;5094459;28;20386;-83
2022/12/13 06:56:07;;;;;;;13.80;11.20;;;;;;;;;;5090335;28;20459;-81
2022/12/13 06:58:33;;;;;;;10.43;9.32;;;;;;;;;;5088471;28;20476;-81
2022/12/13 07:01:04;;;;;;;10.88;9.73;;;;;;;;;;5071277;28;20414;-82
2022/12/13 07:03:30;;;;;;;11.20;10.02;;;;;;;;;;5085206;28;20417;-84
2022/12/13 07:05:57;;;;;;;10.77;9.63;;;;;;;;;;5091207;28;20397;-83
2022/12/13 07:08:23;;;;;;;11.30;10.10;;;;;;;;;;5093710;28;20474;-84
2022/12/13 07:10:49;;;;;;;13.30;11.00;;;;;;;;;;5075139;28;20406;-84
2022/12/13 07:13:15;;;;;;;13.93;11.30;;;;;;;;;;5093690;28;20377;-83
2022/12/13 07:15:41;;;;;;;11.73;10.23;;;;;;;;;;5094037;28;20924;-83
2022/12/13 07:18:07;;;;;;;13.32;11.40;;;;;;;;;;5090508;28;20386;-83
2022/12/13 07:20:33;;;;;;;16.38;11.82;;;;;;;;;;5094151;28;20439;-83
2022/12/13 07:22:59;;;;;;;12.30;11.00;;;;;;;;;;5094081;28;20799;-82
2022/12/13 07:25:25;;;;;;;18.08;13.60;;;;;;;;;;5094128;28;20374;-82
2022/12/13 07:28:02;;;;;;;15.50;13.30;;;;;;;;;;5093736;28;20503;-82
2022/12/13 07:30:28;;;;;;;18.42;14.43;;;;;;;;;;5075567;28;20895;-82
2022/12/13 07:32:54;;;;;;;22.63;17.25;;;;;;;;;;5091679;28;20386;-81
2022/12/13 07:35:20;;;;;;;19.60;17.17;;;;;;;;;;5056769;28;20441;-81
2022/12/13 07:37:46;;;;;;;18.45;16.45;;;;;;;;;;5093639;28;20381;-81
2022/12/13 07:40:12;;;;;;;18.73;16.75;;;;;;;;;;5069735;28;20396;-81
2022/12/13 07:42:38;;;;;;;20.58;18.45;;;;;;;;;;5081148;28;21019;-81
2022/12/13 07:45:04;;;;;;;23.75;20.55;;;;;;;;;;5092723;28;20413;-81
2022/12/13 07:47:31;;;;;;;29.83;24.92;;;;;;;;;;5092794;28;20389;-82
2022/12/13 07:49:57;;;;;;;33.63;26.83;;;;;;;;;;5094059;28;20902;-82
2022/12/13 07:52:23;;;;;;;31.88;26.63;;;;;;;;;;5072664;28;20401;-82
2022/12/13 07:54:49;;;;;;;33.10;25.98;;;;;;;;;;5093791;28;20870;-82
2022/12/13 07:57:15;;;;;;;34.75;26.65;;;;;;;;;;5093973;28;20390;-81
2022/12/13 07:59:41;;;;;;;39.00;27.33;;;;;;;;;;5093817;28;20436;-82
2022/12/13 08:02:12;;;;;;;32.67;24.65;;;;;;;;;;5093585;28;20899;-83
2022/12/13 08:04:38;;;;;;;36.92;25.30;;;;;;;;;;5093479;28;20439;-82
2022/12/13 08:07:10;;;;;;;37.35;24.30;;;;;;;;;;5083178;28;20406;-81
2022/12/13 08:09:36;;;;;;;35.88;23.70;;;;;;;;;;5086760;28;20378;-81
2022/12/13 08:12:02;;;;;;;33.90;22.73;;;;;;;;;;5081029;28;20382;-82
2022/12/13 08:14:28;;;;;;;33.58;22.42;;;;;;;;;;5066895;28;20390;-82
2022/12/13 08:16:54;;;;;;;30.73;20.13;;;;;;;;;;5099786;28;20514;-80
2022/12/13 08:19:20;;;;;;;30.15;20.08;;;;;;;;;;5084517;28;20383;-81
2022/12/13 08:21:46;;;;;;;27.25;19.35;;;;;;;;;;5092717;28;20777;-81
2022/12/13 08:24:12;;;;;;;30.45;20.30;;;;;;;;;;5093298;28;20378;-81
2022/12/13 08:26:38;;;;;;;25.60;17.38;;;;;;;;;;5093225;28;20465;-82
2022/12/13 08:29:04;;;;;;;24.38;17.90;;;;;;;;;;5074914;28;20412;-81
2022/12/13 08:31:31;;;;;;;21.58;16.08;;;;;;;;;;5093112;28;20440;-82
2022/12/13 08:33:57;;;;;;;26.33;20.17;;;;;;;;;;5093198;28;20907;-81
2022/12/13 08:36:24;;;;;;;19.77;15.10;;;;;;;;;;5093242;28;20394;-81
2022/12/13 08:38:53;;;;;;;20.37;16.40;;;;;;;;;;5092878;28;20382;-81
2022/12/13 08:41:19;;;;;;;16.33;13.80;;;;;;;;;;5074433;28;20859;-81
2022/12/13 08:43:45;;;;;;;15.93;14.23;;;;;;;;;;5094124;28;20385;-81
2022/12/13 08:46:11;;;;;;;15.23;13.38;;;;;;;;;;5105218;28;20385;-81
2022/12/13 08:48:37;;;;;;;14.17;12.77;;;;;;;;;;5093215;28;20466;-81
2022/12/13 08:51:07;;;;;;;14.32;12.85;;;;;;;;;;5092972;28;20382;-81
2022/12/13 08:53:33;;;;;;;15.33;13.63;;;;;;;;;;5074892;28;20417;-81
2022/12/13 08:56:03;;;;;;;14.93;13.20;;;;;;;;;;5093007;28;20385;-81
2022/12/13 08:58:30;;;;;;;17.80;14.00;;;;;;;;;;5088978;28;20390;-81
2022/12/13 09:00:56;;;;;;;16.08;12.98;;;;;;;;;;5093066;28;20401;-81
2022/12/13 09:03:22;;;;;;;15.35;13.60;;;;;;;;;;5092649;28;20414;-82
2022/12/13 09:05:48;;;;;;;16.27;13.10;;;;;;;;;;5092661;28;20410;-82
2022/12/13 09:08:15;;;;;;;15.23;12.35;;;;;;;;;;5093703;28;20828;-82
2022/12/13 09:10:41;;;;;;;16.10;13.45;;;;;;;;;;5095899;28;20436;-81
2022/12/13 09:13:07;;;;;;;18.00;14.18;;;;;;;;;;5089269;28;20379;-81
2022/12/13 09:15:33;;;;;;;15.57;13.23;;;;;;;;;;5078675;28;20470;-81
2022/12/13 09:17:59;;;;;;;16.35;13.05;;;;;;;;;;5092822;28;20378;-82
2022/12/13 09:20:25;;;;;;;16.30;13.43;;;;;;;;;;5092917;28;20389;-81
2022/12/13 09:22:53;;;;;;;15.23;12.80;;;;;;;;;;5092125;28;20909;-82
2022/12/13 09:25:19;;;;;;;14.90;13.30;;;;;;;;;;5091749;28;20393;-81
2022/12/13 09:27:45;;;;;;;15.98;13.57;;;;;;;;;;5092087;28;20377;-81
2022/12/13 09:30:14;;;;;;;16.38;14.02;;;;;;;;;;5091878;28;20388;-81
2022/12/13 09:32:40;;;;;;;15.20;13.60;;;;;;;;;;5092407;28;20390;-81
2022/12/13 09:35:07;;;;;;;15.90;14.30;;;;;;;;;;5092378;28;20366;-81
2022/12/13 09:37:34;;;;;;;17.98;13.73;;;;;;;;;;5092347;28;20464;-81
2022/12/13 09:40:00;;;;;;;15.82;13.40;;;;;;;;;;5083767;28;20409;-81
2022/12/13 09:42:28;;;;;;;16.88;14.32;;;;;;;;;;5092388;28;20795;-82
2022/12/13 09:44:56;;;;;;;16.70;13.25;;;;;;;;;;5092419;28;20386;-81
2022/12/13 09:47:28;;;;;;;17.75;14.93;;;;;;;;;;5092318;28;20457;-81
2022/12/13 09:49:54;;;;;;;15.55;13.82;;;;;;;;;;5092521;28;20861;-82
2022/12/13 09:52:22;;;;;;;17.33;13.63;;;;;;;;;;5092126;28;20428;-81
2022/12/13 09:54:49;;;;;;;18.27;14.73;;;;;;;;;;5091804;28;20507;-81
2022/12/13 09:57:18;;;;;;;15.85;14.20;;;;;;;;;;5092299;28;20378;-81
2022/12/13 09:59:44;;;;;;;15.90;14.30;;;;;;;;;;5092112;28;20386;-81
2022/12/13 10:02:16;;;;;;;17.15;13.27;;;;;;;;;;5088757;28;20410;-81
2022/12/13 10:04:42;;;;;;;15.00;13.40;;;;;;;;;;5092245;28;20374;-81
2022/12/13 10:07:13;;;;;;;14.48;12.77;;;;;;;;;;5092200;28;20378;-81
2022/12/13 10:09:39;;;;;;;14.82;13.25;;;;;;;;;;5093344;28;20370;-81
2022/12/13 10:12:05;;;;;;;15.17;13.30;;;;;;;;;;5077946;28;20920;-81
2022/12/13 10:14:35;;;;;;;17.65;13.88;;;;;;;;;;5096045;28;20419;-81
2022/12/13 10:17:03;;;;;;;14.70;13.18;;;;;;;;;;5096022;28;20374;-81
2022/12/13 10:19:29;;;;;;;17.08;14.05;;;;;;;;;;5095826;28;20377;-81
2022/12/13 10:21:55;;;;;;;15.40;13.32;;;;;;;;;;5095580;28;20890;-81
2022/12/13 10:24:29;;;;;;;23.63;14.20;;;;;;;;;;5095706;28;20431;-81
2022/12/13 10:26:56;;;;;;;14.85;13.23;;;;;;;;;;5095561;28;20771;-81
2022/12/13 10:29:22;;;;;;;17.75;13.55;;;;;;;;;;5086168;28;20390;-81
2022/12/13 10:31:50;;;;;;;16.30;14.27;;;;;;;;;;5075988;28;20407;-81
2022/12/13 10:34:24;;;;;;;19.63;14.32;;;;;;;;;;5074147;28;20387;-81
2022/12/13 10:36:50;;;;;;;21.13;13.98;;;;;;;;;;5075677;28;20478;-81
2022/12/13 10:39:18;;;;;;;21.27;14.93;;;;;;;;;;5084079;28;20379;-81
2022/12/13 10:41:46;;;;;;;17.05;13.85;;;;;;;;;;5081781;28;20420;-81
2022/12/13 10:44:12;;;;;;;18.75;14.23;;;;;;;;;;5078873;28;20485;-81
2022/12/13 10:47:01;;;;;;;17.27;14.00;;;;;;;;;;5075977;28;20470;-81
2022/12/13 10:49:29;;;;;;;16.60;13.95;;;;;;;;;;5061922;28;20394;-81
2022/12/13 10:51:56;;;;;;;17.65;13.90;;;;;;;;;;5078469;28;20388;-81
2022/12/13 10:54:24;;;;;;;22.42;14.77;;;;;;;;;;5076006;28;20423;-81
2022/12/13 10:56:52;;;;;;;14.43;12.93;;;;;;;;;;5077689;28;20406;-81
2022/12/13 10:59:19;;;;;;;20.17;14.13;;;;;;;;;;5075401;28;20428;-81
2022/12/13 11:01:46;;;;;;;15.73;13.27;;;;;;;;;;5074840;28;20443;-81
2022/12/13 11:04:31;;;;;;;20.10;13.65;;;;;;;;;;5074932;28;20466;-81
2022/12/13 11:06:59;;;;;;;29.10;14.73;;;;;;;;;;5060479;28;20870;-81
2022/12/13 11:09:25;;;;;;;17.57;14.87;;;;;;;;;;5075852;28;20464;-81
2022/12/13 11:11:52;;;;;;;20.00;15.00;;;;;;;;;;5088912;28;20378;-81
2022/12/13 11:14:20;;;;;;;18.02;14.45;;;;;;;;;;5088196;28;20702;-81
2022/12/13 11:16:51;;;;;;;18.55;14.52;;;;;;;;;;5077442;28;20877;-81
2022/12/13 11:19:43;;;;;;;19.02;15.18;;;;;;;;;;5076014;28;20909;-81
2022/12/13 11:22:10;;;;;;;19.23;14.52;;;;;;;;;;5090458;28;20409;-81
2022/12/13 11:24:37;;;;;;;21.77;15.52;;;;;;;;;;5094212;28;20386;-81
2022/12/13 11:27:15;;;;;;;24.38;16.60;;;;;;;;;;5094274;28;20398;-81
2022/12/13 11:29:48;;;;;;;17.58;15.68;;;;;;;;;;5111459;22;20435;-87
2022/12/13 11:32:20;;;;;;;22.80;16.15;;;;;;;;;;5114134;28;20379;-88
2022/12/13 11:34:52;;;;;;;19.88;15.90;;;;;;;;;;5114806;28;20373;-87
2022/12/13 11:37:30;;;;;;;19.58;15.93;;;;;;;;;;5114281;28;20835;-87
2022/12/13 11:40:12;;;;;;;29.43;15.87;;;;;;;;;;5096064;28;20386;-88
2022/12/13 11:43:05;;;;;;;26.73;17.02;;;;;;;;;;5093526;28;20417;-89
2022/12/13 11:45:36;;;;;;;22.25;15.88;;;;;;;;;;5096167;28;20389;-87
2022/12/13 11:48:02;;;;;;;24.23;15.83;;;;;;;;;;5114325;28;20395;-88
2022/12/13 11:50:35;;;;;;;25.02;16.13;;;;;;;;;;5095944;28;20381;-88
2022/12/13 11:53:22;;;;;;;20.42;15.98;;;;;;;;;;5114246;28;20379;-89
2022/12/13 11:56:06;;;;;;;29.17;16.25;;;;;;;;;;5114691;28;20396;-91
2022/12/13 11:58:48;;;;;;;25.77;15.80;;;;;;;;;;5083992;28;20377;-90
2022/12/13 12:01:40;;;;;;;21.33;16.00;;;;;;;;;;5108000;28;20790;-89
2022/12/13 12:04:12;;;;;;;23.60;16.55;;;;;;;;;;5106968;28;20400;-91
2022/12/13 12:06:40;;;;;;;42.87;18.50;;;;;;;;;;5097357;28;20457;-88
2022/12/13 12:09:09;;;;;;;22.83;17.00;;;;;;;;;;5093804;28;20922;-90
2022/12/13 12:11:39;;;;;;;22.00;16.15;;;;;;;;;;5092024;28;20390;-90
2022/12/13 12:14:19;;;;;;;19.45;15.20;;;;;;;;;;5112275;28;20388;-90
2022/12/13 12:16:55;;;;;;;24.23;15.20;;;;;;;;;;5113720;28;20471;-91
2022/12/13 12:19:41;;;;;;;21.10;15.90;;;;;;;;;;5104279;28;20716;-92
2022/12/13 12:22:07;;;;;;;20.35;14.60;;;;;;;;;;5093437;28;20853;-90
2022/12/13 12:24:43;;;;;;;18.27;14.00;;;;;;;;;;5104943;28;20404;-90
2022/12/13 12:27:12;;;;;;;22.00;16.00;;;;;;;;;;5113781;28;20377;-89
2022/12/13 12:29:49;;;;;;;26.77;15.05;;;;;;;;;;5113738;28;20391;-89
2022/12/13 12:32:34;;;;;;;19.80;14.82;;;;;;;;;;5103550;28;20862;-90
2022/12/13 12:35:10;;;;;;;17.05;14.05;;;;;;;;;;5098041;28;20373;-91
2022/12/13 12:37:55;;;;;;;18.63;13.82;;;;;;;;;;5093409;28;20385;-89
2022/12/13 12:40:39;;;;;;;17.73;13.65;;;;;;;;;;5105079;28;20377;-91
2022/12/13 12:43:20;;;;;;;19.10;13.82;;;;;;;;;;5099117;28;20422;-90
2022/12/13 12:46:01;;;;;;;17.85;14.05;;;;;;;;;;5119283;28;20376;-91
2022/12/13 12:48:37;;;;;;;16.50;13.20;;;;;;;;;;5100203;28;20453;-90
2022/12/13 12:51:14;;;;;;;18.17;13.75;;;;;;;;;;5101853;28;20404;-90
2022/12/13 12:53:43;;;;;;;17.05;12.95;;;;;;;;;;5109610;28;20396;-89
2022/12/13 12:56:29;;;;;;;16.80;13.07;;;;;;;;;;5105242;28;20459;-89
2022/12/13 12:59:21;;;;;;;16.90;13.07;;;;;;;;;;5045211;28;20401;-90
2022/12/13 13:01:56;;;;;;;17.33;14.13;;;;;;;;;;5067356;28;20422;-88
2022/12/13 13:04:26;;;;;;;17.38;14.02;;;;;;;;;;5113377;28;20403;-88
2022/12/13 13:06:59;;;;;;;22.05;14.02;;;;;;;;;;5093758;28;20435;-89
2022/12/13 13:09:25;;;;;;;23.42;14.60;;;;;;;;;;5093347;28;20475;-89
2022/12/13 13:11:51;;;;;;;18.35;13.60;;;;;;;;;;5105468;28;20377;-90
2022/12/13 13:14:32;;;;;;;15.00;12.70;;;;;;;;;;5113535;28;20459;-90
2022/12/13 13:17:00;;;;;;;15.00;13.10;;;;;;;;;;5110983;28;20387;-90
2022/12/13 13:19:32;;;;;;;18.13;14.00;;;;;;;;;;5088044;28;20388;-90
2022/12/13 13:21:58;;;;;;;20.35;15.05;;;;;;;;;;5101655;28;20423;-90
2022/12/13 13:24:28;;;;;;;22.23;15.05;;;;;;;;;;5083815;28;20479;-91
2022/12/13 13:26:57;;;;;;;21.02;13.93;;;;;;;;;;5113047;28;20716;-88
2022/12/13 13:29:23;;;;;;;24.52;13.80;;;;;;;;;;5112827;28;20376;-89
2022/12/13 13:31:56;;;;;;;17.70;13.70;;;;;;;;;;5077103;28;20396;-88
2022/12/13 13:34:24;;;;;;;21.13;15.75;;;;;;;;;;5094214;28;20381;-89
2022/12/13 13:36:51;;;;;;;20.02;14.45;;;;;;;;;;5099455;28;20374;-87
2022/12/13 13:39:26;;;;;;;15.60;13.88;;;;;;;;;;5094577;28;20427;-89
2022/12/13 13:41:53;;;;;;;17.65;15.52;;;;;;;;;;5113059;28;20410;-88
2022/12/13 13:44:37;;;;;;;18.35;14.35;;;;;;;;;;5115217;28;20389;-90
2022/12/13 13:47:11;;;;;;;17.58;14.35;;;;;;;;;;5116871;28;20384;-90
2022/12/13 13:49:39;;;;;;;22.85;14.52;;;;;;;;;;5109907;28;20374;-89
2022/12/13 13:52:18;;;;;;;28.35;15.65;;;;;;;;;;5084770;28;20383;-90
2022/12/13 13:54:52;;;;;;;25.98;17.20;;;;;;;;;;5095970;28;20475;-90
2022/12/13 13:57:47;;;;;;;18.45;15.05;;;;;;;;;;5093420;28;20388;-87
2022/12/13 14:00:32;;;;;;;20.73;15.73;;;;;;;;;;5077220;28;20408;-90
2022/12/13 14:02:58;;;;;;;20.35;15.73;;;;;;;;;;5090304;28;20420;-89
2022/12/13 14:05:42;;;;;;;17.77;14.15;;;;;;;;;;5089917;28;20381;-88
2022/12/13 14:08:27;;;;;;;27.30;15.35;;;;;;;;;;5090783;28;20377;-89
2022/12/13 14:10:53;;;;;;;16.98;14.43;;;;;;;;;;5084713;28;20376;-90
2022/12/13 14:13:38;;;;;;;17.92;15.32;;;;;;;;;;5085416;28;20400;-89
2022/12/13 14:16:23;;;;;;;20.77;14.82;;;;;;;;;;5074848;28;20379;-88
2022/12/13 14:19:09;;;;;;;18.33;13.98;;;;;;;;;;5085222;28;20517;-88
2022/12/13 14:21:39;;;;;;;19.65;14.63;;;;;;;;;;5095012;28;20374;-88
2022/12/13 14:24:27;;;;;;;18.40;14.50;;;;;;;;;;5082382;28;20716;-91
2022/12/13 14:27:12;;;;;;;17.80;14.70;;;;;;;;;;5114172;28;20884;-87
2022/12/13 14:29:40;;;;;;;18.20;14.27;;;;;;;;;;5115755;28;20392;-90
2022/12/13 14:32:10;;;;;;;15.68;13.80;;;;;;;;;;5096037;28;20391;-88
2022/12/13 14:34:37;;;;;;;17.77;13.60;;;;;;;;;;5076197;28;20379;-88
2022/12/13 14:37:04;;;;;;;18.23;13.83;;;;;;;;;;5101745;28;20456;-87
2022/12/13 14:39:33;;;;;;;23.20;14.50;;;;;;;;;;5091200;28;20390;-87